KSAT/SAT METAR and TAF weather

Enter ICAO airport designator
Station Type Date Time Source
KSAT METAR 2023/01/29 18:51 UTC NOAA

KSAT 291851Z 11004KT 10SM FEW030 OVC055 23/16 A2997 RMK AO2 SLP134 T02280156


Station Type Date Time Source
KSAT Decoded METAR 2023/01/29 18:51 UTC NOAA

SAN ANTONIO INTERNATIONAL AIRPORT , TX, United States (KSAT) 29-32N 098-28W 243M
Jan 29, 2023 - 01:51 PM EST / 2023.01.29 1851 UTC
Wind: from the ESE (110 degrees) at 5 MPH (4 KT):0
Visibility: 10 mile(s):0
Sky conditions: overcast
Temperature: 73.0 F (22.8 C)
Dew Point: 60.1 F (15.6 C)
Relative Humidity: 63%
Pressure (altimeter): 29.97 in. Hg (1014 hPa)
ob: KSAT 291851Z 11004KT 10SM FEW030 OVC055 23/16 A2997 RMK AO2 SLP134 T02280156
cycle: 19

Station Type Date Time Source
KSAT TAF 2023/01/29 18:45 UTC NOAA

TAF KSAT 291742Z 2918/3024 VRB04KT P6SM VCSH SCT010 BKN015
FM292100 01008KT P6SM BKN025
FM292300 02010G20KT P6SM BKN035
FM300800 01012G22KT P6SM BKN015 OVC025
FM301400 01013G23KT P6SM VCSH OVC012

Example: see airport list